sensor_id;sensor_type;location;lat;lon;timestamp;pressure;altitude;pressure_sealevel;temperature;humidity
52291;BME280;39663;45.432;28.050;2023-02-01T00:00:20;101098.14;;;4.38;46.92
52291;BME280;39663;45.432;28.050;2023-02-01T00:00:51;101097.04;;;4.78;45.92
52291;BME280;39663;45.432;28.050;2023-02-01T00:01:23;101100.07;;;3.77;46.21
52291;BME280;39663;45.432;28.050;2023-02-01T00:01:55;101102.09;;;3.48;48.28
52291;BME280;39663;45.432;28.050;2023-02-01T00:02:27;101103.07;;;2.83;49.34
52291;BME280;39663;45.432;28.050;2023-02-01T00:02:58;101098.76;;;3.17;49.62
52291;BME280;39663;45.432;28.050;2023-02-01T00:03:30;101099.99;;;3.16;48.22
52291;BME280;39663;45.432;28.050;2023-02-01T00:04:01;101103.80;;;2.61;50.07
52291;BME280;39663;45.432;28.050;2023-02-01T00:04:33;101101.35;;;2.14;51.05
52291;BME280;39663;45.432;28.050;2023-02-01T00:05:05;101102.17;;;2.38;50.79
52291;BME280;39663;45.432;28.050;2023-02-01T00:05:37;101101.89;;;2.81;49.49
52291;BME280;39663;45.432;28.050;2023-02-01T00:06:09;101096.34;;;3.41;51.59
52291;BME280;39663;45.432;28.050;2023-02-01T00:06:40;101098.00;;;3.43;50.59
52291;BME280;39663;45.432;28.050;2023-02-01T00:07:12;101098.24;;;4.04;49.28
52291;BME280;39663;45.432;28.050;2023-02-01T00:07:47;101096.73;;;3.75;48.19
52291;BME280;39663;45.432;28.050;2023-02-01T00:08:19;101099.37;;;3.95;50.35
52291;BME280;39663;45.432;28.050;2023-02-01T00:08:53;101098.24;;;4.12;48.93
52291;BME280;39663;45.432;28.050;2023-02-01T00:09:25;101099.28;;;3.44;49.67
52291;BME280;39663;45.432;28.050;2023-02-01T00:09:56;101099.02;;;3.96;51.59
52291;BME280;39663;45.432;28.050;2023-02-01T00:10:28;101099.74;;;3.84;48.00
52291;BME280;39663;45.432;28.050;2023-02-01T00:11:00;101106.17;;;3.03;49.47
52291;BME280;39663;45.432;28.050;2023-02-01T00:11:32;101102.69;;;3.71;51.69
52291;BME280;39663;45.432;28.050;2023-02-01T00:12:04;101100.48;;;4.01;49.85
52291;BME280;39663;45.432;28.050;2023-02-01T00:12:36;101099.58;;;4.19;48.73
52291;BME280;39663;45.432;28.050;2023-02-01T00:13:07;101095.29;;;4.58;51.09
52291;BME280;39663;45.432;28.050;2023-02-01T00:13:41;101095.77;;;3.67;47.54
52291;BME280;39663;45.432;28.050;2023-02-01T00:14:12;101107.84;;;2.78;50.10
52291;BME280;39663;45.432;28.050;2023-02-01T00:14:44;101105.57;;;3.75;53.16
52291;BME280;39663;45.432;28.050;2023-02-01T00:15:17;101106.33;;;4.41;52.63
52291;BME280;39663;45.432;28.050;2023-02-01T00:15:49;101108.39;;;3.48;49.06
52291;BME280;39663;45.432;28.050;2023-02-01T00:16:22;101107.59;;;2.84;49.36
52291;BME280;39663;45.432;28.050;2023-02-01T00:16:54;101110.57;;;2.54;50.17
52291;BME280;39663;45.432;28.050;2023-02-01T00:17:26;101105.73;;;3.36;49.49
52291;BME280;39663;45.432;28.050;2023-02-01T00:17:58;101111.13;;;2.86;49.17
52291;BME280;39663;45.432;28.050;2023-02-01T00:18:29;101108.15;;;3.35;52.53
52291;BME280;39663;45.432;28.050;2023-02-01T00:19:03;101107.82;;;3.59;52.40
52291;BME280;39663;45.432;28.050;2023-02-01T00:19:35;101106.93;;;3.36;49.12
52291;BME280;39663;45.432;28.050;2023-02-01T00:20:07;101111.05;;;2.46;49.41
52291;BME280;39663;45.432;28.050;2023-02-01T00:20:45;101112.51;;;2.15;50.35
52291;BME280;39663;45.432;28.050;2023-02-01T00:21:19;101111.01;;;2.36;51.47
52291;BME280;39663;45.432;28.050;2023-02-01T00:21:51;101107.35;;;2.73;51.98
52291;BME280;39663;45.432;28.050;2023-02-01T00:22:23;101110.89;;;2.71;52.32
52291;BME280;39663;45.432;28.050;2023-02-01T00:22:54;101108.11;;;3.53;53.61
52291;BME280;39663;45.432;28.050;2023-02-01T00:23:26;101111.57;;;3.81;49.83
52291;BME280;39663;45.432;28.050;2023-02-01T00:23:58;101115.36;;;3.13;50.16
52291;BME280;39663;45.432;28.050;2023-02-01T00:24:30;101116.14;;;2.86;50.15
52291;BME280;39663;45.432;28.050;2023-02-01T00:25:02;101111.60;;;3.15;51.36
52291;BME280;39663;45.432;28.050;2023-02-01T00:25:34;101107.40;;;3.57;50.70
52291;BME280;39663;45.432;28.050;2023-02-01T00:26:07;101107.55;;;3.88;51.31
52291;BME280;39663;45.432;28.050;2023-02-01T00:26:41;101106.16;;;3.84;50.07
52291;BME280;39663;45.432;28.050;2023-02-01T00:27:13;101108.50;;;4.43;49.89
52291;BME280;39663;45.432;28.050;2023-02-01T00:27:49;101105.56;;;4.62;51.21
52291;BME280;39663;45.432;28.050;2023-02-01T00:28:20;101103.17;;;4.62;47.47
52291;BME280;39663;45.432;28.050;2023-02-01T00:28:52;101104.24;;;4.75;49.30
52291;BME280;39663;45.432;28.050;2023-02-01T00:29:24;101104.18;;;4.91;48.14
52291;BME280;39663;45.432;28.050;2023-02-01T00:29:55;101104.77;;;3.84;49.74
52291;BME280;39663;45.432;28.050;2023-02-01T00:30:27;101105.53;;;4.65;50.94
52291;BME280;39663;45.432;28.050;2023-02-01T00:30:59;101105.81;;;4.60;49.64
52291;BME280;39663;45.432;28.050;2023-02-01T00:31:31;101103.58;;;4.62;46.82
52291;BME280;39663;45.432;28.050;2023-02-01T00:32:03;101102.40;;;4.19;48.25
52291;BME280;39663;45.432;28.050;2023-02-01T00:32:35;101100.61;;;4.42;48.40
52291;BME280;39663;45.432;28.050;2023-02-01T00:33:07;101098.75;;;4.75;50.48
52291;BME280;39663;45.432;28.050;2023-02-01T00:33:39;101098.65;;;5.17;49.60
52291;BME280;39663;45.432;28.050;2023-02-01T00:34:12;101099.46;;;5.14;48.15
52291;BME280;39663;45.432;28.050;2023-02-01T00:34:44;101097.65;;;5.29;47.21
52291;BME280;39663;45.432;28.050;2023-02-01T00:35:15;101095.89;;;4.89;45.78
52291;BME280;39663;45.432;28.050;2023-02-01T00:35:47;101098.20;;;4.33;49.19
52291;BME280;39663;45.432;28.050;2023-02-01T00:36:19;101100.64;;;3.71;49.35
52291;BME280;39663;45.432;28.050;2023-02-01T00:36:50;101099.21;;;4.06;48.77
52291;BME280;39663;45.432;28.050;2023-02-01T00:37:22;101100.24;;;3.86;47.17
52291;BME280;39663;45.432;28.050;2023-02-01T00:37:54;101101.63;;;3.64;48.34
52291;BME280;39663;45.432;28.050;2023-02-01T00:38:26;101099.57;;;3.81;47.22
52291;BME280;39663;45.432;28.050;2023-02-01T00:38:57;101099.65;;;3.97;49.01
52291;BME280;39663;45.432;28.050;2023-02-01T00:39:29;101099.47;;;3.67;47.35
52291;BME280;39663;45.432;28.050;2023-02-01T00:40:01;101100.30;;;4.14;46.95
52291;BME280;39663;45.432;28.050;2023-02-01T00:40:32;101094.99;;;4.34;49.42
52291;BME280;39663;45.432;28.050;2023-02-01T00:41:06;101096.45;;;4.43;49.43
52291;BME280;39663;45.432;28.050;2023-02-01T00:41:38;101096.31;;;4.87;47.06
52291;BME280;39663;45.432;28.050;2023-02-01T00:42:10;101095.65;;;4.85;49.59
52291;BME280;39663;45.432;28.050;2023-02-01T00:42:42;101095.15;;;5.05;49.11
52291;BME280;39663;45.432;28.050;2023-02-01T00:43:14;101093.30;;;4.96;45.60
52291;BME280;39663;45.432;28.050;2023-02-01T00:43:46;101093.73;;;4.93;47.83
52291;BME280;39663;45.432;28.050;2023-02-01T00:44:18;101093.45;;;4.94;47.42
52291;BME280;39663;45.432;28.050;2023-02-01T00:44:49;101091.84;;;4.72;45.61
52291;BME280;39663;45.432;28.050;2023-02-01T00:45:21;101095.02;;;4.78;48.33
52291;BME280;39663;45.432;28.050;2023-02-01T00:45:53;101094.02;;;5.08;46.48
52291;BME280;39663;45.432;28.050;2023-02-01T00:46:24;101100.27;;;3.70;46.10
52291;BME280;39663;45.432;28.050;2023-02-01T00:46:56;101094.64;;;3.49;46.85
52291;BME280;39663;45.432;28.050;2023-02-01T00:47:28;101090.05;;;4.11;48.29
52291;BME280;39663;45.432;28.050;2023-02-01T00:48:00;101094.33;;;4.49;49.80
52291;BME280;39663;45.432;28.050;2023-02-01T00:48:32;101086.40;;;4.80;48.97
52291;BME280;39663;45.432;28.050;2023-02-01T00:49:04;101089.97;;;5.00;47.40
52291;BME280;39663;45.432;28.050;2023-02-01T00:49:35;101088.59;;;5.18;47.34
52291;BME280;39663;45.432;28.050;2023-02-01T00:50:08;101088.81;;;5.11;45.40
52291;BME280;39663;45.432;28.050;2023-02-01T00:50:41;101085.83;;;4.96;46.84
52291;BME280;39663;45.432;28.050;2023-02-01T00:51:15;101087.46;;;3.95;49.00
52291;BME280;39663;45.432;28.050;2023-02-01T00:51:47;101085.74;;;4.36;47.22
52291;BME280;39663;45.432;28.050;2023-02-01T00:52:18;101088.57;;;4.34;47.46
52291;BME280;39663;45.432;28.050;2023-02-01T00:52:50;101086.50;;;4.17;45.88
52291;BME280;39663;45.432;28.050;2023-02-01T00:53:21;101084.84;;;3.99;47.26
52291;BME280;39663;45.432;28.050;2023-02-01T00:53:53;101085.93;;;4.27;47.00
52291;BME280;39663;45.432;28.050;2023-02-01T00:54:25;101089.64;;;3.75;46.86
52291;BME280;39663;45.432;28.050;2023-02-01T00:54:57;101091.09;;;3.66;47.24
52291;BME280;39663;45.432;28.050;2023-02-01T00:55:28;101086.01;;;3.87;49.23
52291;BME280;39663;45.432;28.050;2023-02-01T00:56:00;101087.76;;;4.08;50.61
52291;BME280;39663;45.432;28.050;2023-02-01T00:56:31;101088.59;;;3.41;47.67
52291;BME280;39663;45.432;28.050;2023-02-01T00:57:03;101094.34;;;2.77;48.67
52291;BME280;39663;45.432;28.050;2023-02-01T00:57:35;101089.28;;;3.13;49.40
52291;BME280;39663;45.432;28.050;2023-02-01T00:58:06;101094.35;;;2.99;49.26
52291;BME280;39663;45.432;28.050;2023-02-01T00:58:38;101088.76;;;3.47;50.29
52291;BME280;39663;45.432;28.050;2023-02-01T01:07:37;101076.63;;;3.47;48.87
52291;BME280;39663;45.432;28.050;2023-02-01T01:08:08;101074.64;;;3.81;47.44
52291;BME280;39663;45.432;28.050;2023-02-01T01:08:40;101072.44;;;3.87;47.32
52291;BME280;39663;45.432;28.050;2023-02-01T01:09:13;101069.96;;;3.62;47.06
52291;BME280;39663;45.432;28.050;2023-02-01T01:09:44;101073.61;;;4.24;49.49
52291;BME280;39663;45.432;28.050;2023-02-01T01:10:16;101068.01;;;4.38;48.44
52291;BME280;39663;45.432;28.050;2023-02-01T01:10:47;101068.41;;;4.07;46.61
52291;BME280;39663;45.432;28.050;2023-02-01T01:11:21;101069.11;;;4.15;48.05
52291;BME280;39663;45.432;28.050;2023-02-01T01:11:53;101072.51;;;4.11;48.29
52291;BME280;39663;45.432;28.050;2023-02-01T01:12:25;101071.07;;;4.38;50.08
52291;BME280;39663;45.432;28.050;2023-02-01T01:12:57;101072.14;;;3.98;46.04
52291;BME280;39663;45.432;28.050;2023-02-01T01:13:28;101076.36;;;3.19;49.62
52291;BME280;39663;45.432;28.050;2023-02-01T01:14:00;101073.69;;;3.81;50.89
52291;BME280;39663;45.432;28.050;2023-02-01T01:14:32;101072.36;;;4.34;50.09
52291;BME280;39663;45.432;28.050;2023-02-01T01:15:05;101066.92;;;4.30;45.91
52291;BME280;39663;45.432;28.050;2023-02-01T01:15:38;101070.02;;;4.58;47.79
52291;BME280;39663;45.432;28.050;2023-02-01T01:16:10;101072.67;;;4.50;48.88
52291;BME280;39663;45.432;28.050;2023-02-01T01:16:42;101073.37;;;4.35;47.85
52291;BME280;39663;45.432;28.050;2023-02-01T01:17:14;101073.03;;;4.00;49.11
52291;BME280;39663;45.432;28.050;2023-02-01T01:17:46;101073.09;;;4.66;46.61
52291;BME280;39663;45.432;28.050;2023-02-01T01:18:17;101072.87;;;4.31;46.35
52291;BME280;39663;45.432;28.050;2023-02-01T01:18:49;101074.14;;;4.47;49.08
52291;BME280;39663;45.432;28.050;2023-02-01T01:19:21;101069.96;;;4.29;45.49
52291;BME280;39663;45.432;28.050;2023-02-01T01:19:53;101073.41;;;3.92;47.58
52291;BME280;39663;45.432;28.050;2023-02-01T01:20:24;101076.03;;;4.09;47.29
52291;BME280;39663;45.432;28.050;2023-02-01T01:20:56;101076.04;;;3.84;47.55
52291;BME280;39663;45.432;28.050;2023-02-01T01:21:28;101073.23;;;4.53;48.84
52291;BME280;39663;45.432;28.050;2023-02-01T01:22:00;101073.63;;;4.47;45.69
52291;BME280;39663;45.432;28.050;2023-02-01T01:22:31;101072.97;;;4.59;47.87
52291;BME280;39663;45.432;28.050;2023-02-01T01:23:03;101073.36;;;4.64;45.65
52291;BME280;39663;45.432;28.050;2023-02-01T01:23:36;101068.78;;;4.58;44.87
52291;BME280;39663;45.432;28.050;2023-02-01T01:24:07;101074.42;;;3.79;46.61
52291;BME280;39663;45.432;28.050;2023-02-01T01:24:39;101071.51;;;3.76;46.61
52291;BME280;39663;45.432;28.050;2023-02-01T01:25:10;101071.39;;;4.59;47.96
52291;BME280;39663;45.432;28.050;2023-02-01T01:25:42;101069.72;;;4.41;47.19
52291;BME280;39663;45.432;28.050;2023-02-01T01:26:17;101068.29;;;4.50;46.53
52291;BME280;39663;45.432;28.050;2023-02-01T01:26:49;101069.88;;;4.50;46.68
52291;BME280;39663;45.432;28.050;2023-02-01T01:27:20;101063.24;;;4.62;45.62
52291;BME280;39663;45.432;28.050;2023-02-01T01:27:52;101063.58;;;4.49;44.54
52291;BME280;39663;45.432;28.050;2023-02-01T01:28:23;101061.73;;;4.69;44.89
52291;BME280;39663;45.432;28.050;2023-02-01T01:28:56;101066.18;;;4.69;47.37
52291;BME280;39663;45.432;28.050;2023-02-01T01:29:28;101063.72;;;4.89;46.53
52291;BME280;39663;45.432;28.050;2023-02-01T01:30:00;101064.58;;;5.05;47.03
52291;BME280;39663;45.432;28.050;2023-02-01T01:30:31;101067.08;;;5.21;47.72
52291;BME280;39663;45.432;28.050;2023-02-01T01:31:03;101065.35;;;5.25;45.31
52291;BME280;39663;45.432;28.050;2023-02-01T01:31:35;101063.03;;;5.36;45.98
52291;BME280;39663;45.432;28.050;2023-02-01T01:32:06;101062.38;;;5.52;46.57
52291;BME280;39663;45.432;28.050;2023-02-01T01:32:38;101064.04;;;5.65;46.91
52291;BME280;39663;45.432;28.050;2023-02-01T01:33:09;101066.46;;;5.67;47.07
52291;BME280;39663;45.432;28.050;2023-02-01T01:33:41;101062.55;;;5.98;45.49
52291;BME280;39663;45.432;28.050;2023-02-01T01:34:13;101060.93;;;6.07;45.78
52291;BME280;39663;45.432;28.050;2023-02-01T01:34:44;101062.57;;;6.18;46.31
52291;BME280;39663;45.432;28.050;2023-02-01T01:35:16;101062.27;;;6.26;46.04
52291;BME280;39663;45.432;28.050;2023-02-01T01:35:47;101063.60;;;6.31;43.87
52291;BME280;39663;45.432;28.050;2023-02-01T01:36:19;101062.51;;;6.26;44.99
52291;BME280;39663;45.432;28.050;2023-02-01T01:36:51;101062.24;;;6.43;42.16
52291;BME280;39663;45.432;28.050;2023-02-01T01:37:22;101063.53;;;6.28;44.90
52291;BME280;39663;45.432;28.050;2023-02-01T01:37:54;101064.31;;;6.01;45.04
52291;BME280;39663;45.432;28.050;2023-02-01T01:38:25;101065.66;;;6.12;45.36
52291;BME280;39663;45.432;28.050;2023-02-01T01:38:57;101062.38;;;6.36;43.61
52291;BME280;39663;45.432;28.050;2023-02-01T01:39:29;101062.74;;;6.58;43.61
52291;BME280;39663;45.432;28.050;2023-02-01T01:40:01;101063.12;;;6.16;42.98
52291;BME280;39663;45.432;28.050;2023-02-01T01:40:32;101067.18;;;6.15;44.97
52291;BME280;39663;45.432;28.050;2023-02-01T01:41:04;101067.71;;;6.25;45.04
52291;BME280;39663;45.432;28.050;2023-02-01T01:41:36;101064.88;;;6.32;44.01
52291;BME280;39663;45.432;28.050;2023-02-01T01:42:10;101058.54;;;6.35;41.83
52291;BME280;39663;45.432;28.050;2023-02-01T01:42:43;101064.94;;;6.20;42.20
52291;BME280;39663;45.432;28.050;2023-02-01T01:43:16;101066.27;;;5.97;42.28
52291;BME280;39663;45.432;28.050;2023-02-01T01:43:51;101066.17;;;6.16;45.29
52291;BME280;39663;45.432;28.050;2023-02-01T01:44:59;101060.74;;;6.30;44.31
52291;BME280;39663;45.432;28.050;2023-02-01T01:45:33;101064.91;;;6.43;45.40
52291;BME280;39663;45.432;28.050;2023-02-01T01:46:05;101068.05;;;6.11;43.56
52291;BME280;39663;45.432;28.050;2023-02-01T01:46:37;101068.61;;;6.13;43.95
52291;BME280;39663;45.432;28.050;2023-02-01T01:47:10;101067.58;;;5.53;42.67
52291;BME280;39663;45.432;28.050;2023-02-01T01:47:44;101071.15;;;5.88;46.22
52291;BME280;39663;45.432;28.050;2023-02-01T01:48:21;101069.17;;;6.00;44.21
52291;BME280;39663;45.432;28.050;2023-02-01T01:49:02;101070.02;;;6.25;45.31
52291;BME280;39663;45.432;28.050;2023-02-01T01:49:35;101069.75;;;6.20;45.88
52291;BME280;39663;45.432;28.050;2023-02-01T01:50:13;101069.38;;;5.67;42.14
52291;BME280;39663;45.432;28.050;2023-02-01T01:50:49;101069.15;;;5.82;43.07
52291;BME280;39663;45.432;28.050;2023-02-01T01:51:23;101066.88;;;6.06;45.01
52291;BME280;39663;45.432;28.050;2023-02-01T01:51:58;101070.02;;;5.77;44.85
52291;BME280;39663;45.432;28.050;2023-02-01T01:52:32;101067.03;;;6.10;44.09
52291;BME280;39663;45.432;28.050;2023-02-01T01:53:07;101063.95;;;5.54;41.88
52291;BME280;39663;45.432;28.050;2023-02-01T01:53:44;101065.30;;;4.80;42.24
52291;BME280;39663;45.432;28.050;2023-02-01T01:54:20;101066.32;;;4.88;44.81
52291;BME280;39663;45.432;28.050;2023-02-01T01:54:53;101065.39;;;5.10;44.01
52291;BME280;39663;45.432;28.050;2023-02-01T01:55:26;101066.09;;;5.11;44.59
52291;BME280;39663;45.432;28.050;2023-02-01T01:55:59;101067.03;;;4.53;44.58
52291;BME280;39663;45.432;28.050;2023-02-01T01:56:32;101065.95;;;5.24;44.69
52291;BME280;39663;45.432;28.050;2023-02-01T01:57:10;101066.21;;;5.12;45.77
52291;BME280;39663;45.432;28.050;2023-02-01T01:57:46;101066.46;;;4.84;44.63
52291;BME280;39663;45.432;28.050;2023-02-01T01:58:21;101065.30;;;5.47;45.99
52291;BME280;39663;45.432;28.050;2023-02-01T01:58:54;101066.57;;;5.28;42.55
52291;BME280;39663;45.432;28.050;2023-02-01T01:59:26;101062.88;;;5.04;45.13
52291;BME280;39663;45.432;28.050;2023-02-01T02:00:03;101063.64;;;5.39;46.71
52291;BME280;39663;45.432;28.050;2023-02-01T02:00:36;101065.59;;;5.63;46.12
52291;BME280;39663;45.432;28.050;2023-02-01T02:01:08;101064.15;;;4.59;42.96
52291;BME280;39663;45.432;28.050;2023-02-01T02:01:40;101064.52;;;4.79;45.73
52291;BME280;39663;45.432;28.050;2023-02-01T02:02:11;101061.77;;;5.05;44.91
52291;BME280;39663;45.432;28.050;2023-02-01T02:02:45;101063.24;;;4.70;43.92
52291;BME280;39663;45.432;28.050;2023-02-01T02:03:22;101065.56;;;4.73;45.53
52291;BME280;39663;45.432;28.050;2023-02-01T02:03:55;101065.42;;;4.36;44.12
52291;BME280;39663;45.432;28.050;2023-02-01T02:04:28;101066.17;;;4.58;43.89
52291;BME280;39663;45.432;28.050;2023-02-01T02:04:59;101064.13;;;4.79;46.75
52291;BME280;39663;45.432;28.050;2023-02-01T02:05:31;101065.31;;;5.19;46.99
52291;BME280;39663;45.432;28.050;2023-02-01T02:06:04;101066.83;;;5.21;46.68
52291;BME280;39663;45.432;28.050;2023-02-01T02:06:43;101064.23;;;4.87;43.57
52291;BME280;39663;45.432;28.050;2023-02-01T02:07:19;101067.60;;;5.12;47.76
52291;BME280;39663;45.432;28.050;2023-02-01T02:07:54;101066.50;;;5.47;47.45
52291;BME280;39663;45.432;28.050;2023-02-01T02:08:29;101068.80;;;5.68;44.69
52291;BME280;39663;45.432;28.050;2023-02-01T02:09:00;101066.71;;;5.75;45.31
52291;BME280;39663;45.432;28.050;2023-02-01T02:09:32;101068.21;;;5.74;47.01
52291;BME280;39663;45.432;28.050;2023-02-01T02:10:05;101063.64;;;5.67;43.08
52291;BME280;39663;45.432;28.050;2023-02-01T02:10:37;101065.27;;;5.93;44.39
52291;BME280;39663;45.432;28.050;2023-02-01T02:11:11;101063.66;;;5.76;42.85
52291;BME280;39663;45.432;28.050;2023-02-01T02:11:43;101062.66;;;5.16;45.00
52291;BME280;39663;45.432;28.050;2023-02-01T02:12:15;101059.37;;;5.45;42.74
52291;BME280;39663;45.432;28.050;2023-02-01T02:12:47;101060.52;;;5.12;43.52
52291;BME280;39663;45.432;28.050;2023-02-01T02:13:20;101058.28;;;5.36;43.78
52291;BME280;39663;45.432;28.050;2023-02-01T02:13:54;101058.58;;;5.15;44.33
52291;BME280;39663;45.432;28.050;2023-02-01T02:14:28;101057.21;;;5.44;45.02
52291;BME280;39663;45.432;28.050;2023-02-01T02:14:59;101058.39;;;5.09;45.15
52291;BME280;39663;45.432;28.050;2023-02-01T02:15:32;101054.03;;;5.26;43.39
52291;BME280;39663;45.432;28.050;2023-02-01T02:16:19;101056.21;;;4.85;44.14
52291;BME280;39663;45.432;28.050;2023-02-01T02:17:02;101055.43;;;4.82;44.01
52291;BME280;39663;45.432;28.050;2023-02-01T02:17:40;101056.61;;;3.37;44.89
52291;BME280;39663;45.432;28.050;2023-02-01T02:18:20;101055.50;;;3.54;45.53
52291;BME280;39663;45.432;28.050;2023-02-01T02:19:05;101056.21;;;4.18;48.17
52291;BME280;39663;45.432;28.050;2023-02-01T02:20:10;101050.80;;;3.64;45.23
52291;BME280;39663;45.432;28.050;2023-02-01T02:21:14;101056.72;;;2.13;47.19
52291;BME280;39663;45.432;28.050;2023-02-01T02:22:04;101054.53;;;2.79;48.43
52291;BME280;39663;45.432;28.050;2023-02-01T02:22:55;101048.24;;;3.68;46.92
52291;BME280;39663;45.432;28.050;2023-02-01T02:24:02;101048.59;;;3.95;48.67
52291;BME280;39663;45.432;28.050;2023-02-01T02:24:54;101048.70;;;4.49;48.14
52291;BME280;39663;45.432;28.050;2023-02-01T02:26:05;101048.05;;;4.91;49.33
52291;BME280;39663;45.432;28.050;2023-02-01T02:26:53;101044.60;;;5.16;48.40
52291;BME280;39663;45.432;28.050;2023-02-01T02:27:43;101041.66;;;5.35;46.69
52291;BME280;39663;45.432;28.050;2023-02-01T02:28:37;101039.42;;;5.21;44.68
52291;BME280;39663;45.432;28.050;2023-02-01T02:29:42;101040.58;;;5.45;47.83
52291;BME280;39663;45.432;28.050;2023-02-01T02:30:37;101036.46;;;5.66;45.02
52291;BME280;39663;45.432;28.050;2023-02-01T02:31:25;101034.62;;;5.57;47.76
52291;BME280;39663;45.432;28.050;2023-02-01T02:34:46;101017.17;;;5.80;43.85
52291;BME280;39663;45.432;28.050;2023-02-01T02:35:27;101014.54;;;5.71;43.58
52291;BME280;39663;45.432;28.050;2023-02-01T02:36:07;101009.99;;;5.75;45.09
52291;BME280;39663;45.432;28.050;2023-02-01T02:36:49;101008.66;;;6.02;44.70
52291;BME280;39663;45.432;28.050;2023-02-01T02:37:38;101004.97;;;5.60;46.00
52291;BME280;39663;45.432;28.050;2023-02-01T02:38:15;101003.05;;;6.06;46.32
52291;BME280;39663;45.432;28.050;2023-02-01T02:38:54;101005.04;;;6.21;46.40
52291;BME280;39663;45.432;28.050;2023-02-01T02:39:38;101002.89;;;5.70;42.24
52291;BME280;39663;45.432;28.050;2023-02-01T02:40:16;101006.15;;;5.94;45.37
52291;BME280;39663;45.432;28.050;2023-02-01T02:40:59;101009.80;;;5.87;46.28
52291;BME280;39663;45.432;28.050;2023-02-01T02:41:39;101010.45;;;6.03;42.19
52291;BME280;39663;45.432;28.050;2023-02-01T02:42:16;101012.18;;;4.94;42.83
52291;BME280;39663;45.432;28.050;2023-02-01T02:42:59;101014.41;;;4.84;45.14
52291;BME280;39663;45.432;28.050;2023-02-01T02:43:42;101014.90;;;4.68;43.49
52291;BME280;39663;45.432;28.050;2023-02-01T02:44:23;101013.58;;;4.70;42.67
52291;BME280;39663;45.432;28.050;2023-02-01T02:45:03;101016.82;;;3.37;44.95
52291;BME280;39663;45.432;28.050;2023-02-01T02:45:41;101011.61;;;3.63;44.39
52291;BME280;39663;45.432;28.050;2023-02-01T02:46:21;101011.78;;;4.11;44.62
52291;BME280;39663;45.432;28.050;2023-02-01T02:47:00;101015.87;;;4.73;46.10
52291;BME280;39663;45.432;28.050;2023-02-01T02:47:42;101011.73;;;4.75;45.58
52291;BME280;39663;45.432;28.050;2023-02-01T02:48:20;101014.93;;;4.55;46.29
52291;BME280;39663;45.432;28.050;2023-02-01T02:49:01;101016.34;;;4.57;46.16
52291;BME280;39663;45.432;28.050;2023-02-01T02:49:36;101018.00;;;4.87;48.29
52291;BME280;39663;45.432;28.050;2023-02-01T02:50:17;101017.92;;;5.07;46.85
52291;BME280;39663;45.432;28.050;2023-02-01T02:50:56;101018.82;;;4.99;43.31
52291;BME280;39663;45.432;28.050;2023-02-01T02:51:32;101019.36;;;4.82;43.26
52291;BME280;39663;45.432;28.050;2023-02-01T02:52:10;101019.61;;;4.74;45.90
52291;BME280;39663;45.432;28.050;2023-02-01T02:52:48;101022.02;;;4.33;43.93
52291;BME280;39663;45.432;28.050;2023-02-01T02:53:27;101022.87;;;4.27;43.55
52291;BME280;39663;45.432;28.050;2023-02-01T02:54:05;101023.99;;;4.36;44.73
52291;BME280;39663;45.432;28.050;2023-02-01T02:54:40;101028.55;;;4.52;46.21
52291;BME280;39663;45.432;28.050;2023-02-01T02:55:13;101031.36;;;4.54;46.99
52291;BME280;39663;45.432;28.050;2023-02-01T02:55:45;101033.45;;;4.83;47.04
52291;BME280;39663;45.432;28.050;2023-02-01T02:56:20;101034.74;;;5.01;47.03
52291;BME280;39663;45.432;28.050;2023-02-01T02:56:53;101033.14;;;5.33;44.90
52291;BME280;39663;45.432;28.050;2023-02-01T02:57:29;101034.06;;;5.04;44.43
52291;BME280;39663;45.432;28.050;2023-02-01T02:58:03;101036.00;;;5.23;43.44
52291;BME280;39663;45.432;28.050;2023-02-01T02:58:36;101035.52;;;5.18;43.78
52291;BME280;39663;45.432;28.050;2023-02-01T02:59:09;101039.03;;;4.80;45.11
52291;BME280;39663;45.432;28.050;2023-02-01T02:59:45;101037.87;;;4.69;45.54
52291;BME280;39663;45.432;28.050;2023-02-01T03:00:21;101038.49;;;4.64;45.54
52291;BME280;39663;45.432;28.050;2023-02-01T03:00:54;101037.40;;;4.39;45.05
52291;BME280;39663;45.432;28.050;2023-02-01T03:01:27;101035.77;;;4.39;45.00
52291;BME280;39663;45.432;28.050;2023-02-01T03:01:59;101035.01;;;4.54;44.60
52291;BME280;39663;45.432;28.050;2023-02-01T03:02:31;101034.49;;;4.38;44.40
52291;BME280;39663;45.432;28.050;2023-02-01T03:03:04;101035.23;;;4.35;43.82
52291;BME280;39663;45.432;28.050;2023-02-01T03:03:38;101033.34;;;4.42;43.64
52291;BME280;39663;45.432;28.050;2023-02-01T03:04:10;101033.69;;;4.58;43.36
52291;BME280;39663;45.432;28.050;2023-02-01T03:04:42;101035.96;;;3.55;45.14
52291;BME280;39663;45.432;28.050;2023-02-01T03:05:14;101038.26;;;3.22;45.89
52291;BME280;39663;45.432;28.050;2023-02-01T03:05:47;101033.93;;;3.91;45.74
52291;BME280;39663;45.432;28.050;2023-02-01T03:06:19;101028.93;;;3.88;44.57
52291;BME280;39663;45.432;28.050;2023-02-01T03:06:52;101031.77;;;3.69;44.83
52291;BME280;39663;45.432;28.050;2023-02-01T03:08:03;101030.59;;;3.48;44.89
52291;BME280;39663;45.432;28.050;2023-02-01T03:08:35;101029.07;;;3.64;46.12
52291;BME280;39663;45.432;28.050;2023-02-01T03:09:11;101026.81;;;4.08;45.85
52291;BME280;39663;45.432;28.050;2023-02-01T03:09:46;101027.86;;;4.05;46.02
52291;BME280;39663;45.432;28.050;2023-02-01T03:10:26;101026.31;;;4.01;45.48
52291;BME280;39663;45.432;28.050;2023-02-01T03:11:04;101027.07;;;4.11;45.84
52291;BME280;39663;45.432;28.050;2023-02-01T03:11:36;101026.38;;;3.81;44.62
52291;BME280;39663;45.432;28.050;2023-02-01T03:12:12;101025.81;;;3.92;44.79
52291;BME280;39663;45.432;28.050;2023-02-01T03:12:45;101026.30;;;3.98;44.41